sensor_id;sensor_type;location;lat;lon;timestamp;P1;durP1;ratioP1;P2;durP2;ratioP2
65377;SDS011;51982;51.042;13.806;2023-02-26T00:00:11;2.03;;;1.30;;
65377;SDS011;51982;51.042;13.806;2023-02-26T00:02:39;1.77;;;1.27;;
65377;SDS011;51982;51.042;13.806;2023-02-26T00:05:10;1.83;;;1.20;;
65377;SDS011;51982;51.042;13.806;2023-02-26T00:07:35;2.08;;;1.20;;
65377;SDS011;51982;51.042;13.806;2023-02-26T00:10:00;1.98;;;1.25;;
65377;SDS011;51982;51.042;13.806;2023-02-26T00:12:27;2.20;;;1.23;;
65377;SDS011;51982;51.042;13.806;2023-02-26T00:14:52;1.88;;;1.20;;
65377;SDS011;51982;51.042;13.806;2023-02-26T00:17:36;3.45;;;1.40;;
65377;SDS011;51982;51.042;13.806;2023-02-26T00:20:24;2.65;;;1.08;;
65377;SDS011;51982;51.042;13.806;2023-02-26T00:22:50;2.00;;;1.02;;
65377;SDS011;51982;51.042;13.806;2023-02-26T00:25:16;2.45;;;1.33;;
65377;SDS011;51982;51.042;13.806;2023-02-26T00:27:41;1.63;;;1.05;;
65377;SDS011;51982;51.042;13.806;2023-02-26T00:30:08;1.75;;;1.13;;
65377;SDS011;51982;51.042;13.806;2023-02-26T00:32:34;2.28;;;1.23;;
65377;SDS011;51982;51.042;13.806;2023-02-26T00:35:00;2.95;;;1.13;;
65377;SDS011;51982;51.042;13.806;2023-02-26T00:37:29;2.25;;;1.30;;
65377;SDS011;51982;51.042;13.806;2023-02-26T00:42:49;1.50;;;1.10;;
65377;SDS011;51982;51.042;13.806;2023-02-26T00:45:14;1.63;;;0.90;;
65377;SDS011;51982;51.042;13.806;2023-02-26T00:48:01;2.17;;;1.27;;
65377;SDS011;51982;51.042;13.806;2023-02-26T00:50:53;1.35;;;0.98;;
65377;SDS011;51982;51.042;13.806;2023-02-26T00:53:25;0.75;;;0.75;;
65377;SDS011;51982;51.042;13.806;2023-02-26T00:55:55;3.08;;;1.40;;
65377;SDS011;51982;51.042;13.806;2023-02-26T00:58:20;1.75;;;1.23;;
65377;SDS011;51982;51.042;13.806;2023-02-26T01:00:45;1.92;;;0.88;;
65377;SDS011;51982;51.042;13.806;2023-02-26T01:03:11;1.75;;;1.00;;
65377;SDS011;51982;51.042;13.806;2023-02-26T01:05:36;1.02;;;0.77;;
65377;SDS011;51982;51.042;13.806;2023-02-26T01:08:04;2.53;;;1.10;;
65377;SDS011;51982;51.042;13.806;2023-02-26T01:10:37;2.15;;;1.13;;
65377;SDS011;51982;51.042;13.806;2023-02-26T01:13:02;0.55;;;0.55;;
65377;SDS011;51982;51.042;13.806;2023-02-26T01:15:28;1.95;;;1.00;;
65377;SDS011;51982;51.042;13.806;2023-02-26T01:18:04;1.60;;;1.10;;
65377;SDS011;51982;51.042;13.806;2023-02-26T01:20:36;3.65;;;1.30;;
65377;SDS011;51982;51.042;13.806;2023-02-26T01:23:08;1.58;;;0.90;;
65377;SDS011;51982;51.042;13.806;2023-02-26T01:28:10;3.38;;;1.65;;
65377;SDS011;51982;51.042;13.806;2023-02-26T01:30:36;1.98;;;1.25;;
65377;SDS011;51982;51.042;13.806;2023-02-26T01:35:41;1.77;;;1.17;;
65377;SDS011;51982;51.042;13.806;2023-02-26T01:49:19;6.47;;;1.70;;
65377;SDS011;51982;51.042;13.806;2023-02-26T01:51:50;1.95;;;1.45;;
65377;SDS011;51982;51.042;13.806;2023-02-26T01:54:23;2.10;;;1.30;;
65377;SDS011;51982;51.042;13.806;2023-02-26T01:56:55;1.42;;;1.20;;
65377;SDS011;51982;51.042;13.806;2023-02-26T01:59:33;3.20;;;1.27;;
65377;SDS011;51982;51.042;13.806;2023-02-26T02:02:03;1.58;;;1.00;;
65377;SDS011;51982;51.042;13.806;2023-02-26T02:04:30;4.65;;;2.30;;
65377;SDS011;51982;51.042;13.806;2023-02-26T02:06:57;5.45;;;2.50;;
65377;SDS011;51982;51.042;13.806;2023-02-26T02:09:22;1.60;;;1.02;;
65377;SDS011;51982;51.042;13.806;2023-02-26T02:17:23;1.30;;;1.10;;
65377;SDS011;51982;51.042;13.806;2023-02-26T02:19:53;1.92;;;1.17;;
65377;SDS011;51982;51.042;13.806;2023-02-26T02:22:34;1.30;;;1.15;;
65377;SDS011;51982;51.042;13.806;2023-02-26T02:25:30;1.85;;;1.23;;
65377;SDS011;51982;51.042;13.806;2023-02-26T02:31:03;1.48;;;1.10;;
65377;SDS011;51982;51.042;13.806;2023-02-26T02:33:35;2.30;;;1.30;;
65377;SDS011;51982;51.042;13.806;2023-02-26T02:36:10;1.83;;;1.25;;
65377;SDS011;51982;51.042;13.806;2023-02-26T02:38:48;1.23;;;0.93;;
65377;SDS011;51982;51.042;13.806;2023-02-26T02:41:21;1.52;;;1.10;;
65377;SDS011;51982;51.042;13.806;2023-02-26T02:43:54;2.10;;;1.50;;
65377;SDS011;51982;51.042;13.806;2023-02-26T02:46:24;1.70;;;1.20;;
65377;SDS011;51982;51.042;13.806;2023-02-26T02:51:53;1.80;;;1.33;;
65377;SDS011;51982;51.042;13.806;2023-02-26T02:54:26;4.07;;;1.58;;
65377;SDS011;51982;51.042;13.806;2023-02-26T02:57:14;1.98;;;1.13;;
65377;SDS011;51982;51.042;13.806;2023-02-26T02:59:44;1.88;;;1.35;;
65377;SDS011;51982;51.042;13.806;2023-02-26T03:07:21;1.23;;;1.00;;
65377;SDS011;51982;51.042;13.806;2023-02-26T03:09:47;2.50;;;1.30;;
65377;SDS011;51982;51.042;13.806;2023-02-26T03:12:12;1.85;;;1.20;;
65377;SDS011;51982;51.042;13.806;2023-02-26T03:14:38;1.40;;;0.98;;
65377;SDS011;51982;51.042;13.806;2023-02-26T03:17:08;1.80;;;1.17;;
65377;SDS011;51982;51.042;13.806;2023-02-26T03:22:38;1.65;;;1.10;;
65377;SDS011;51982;51.042;13.806;2023-02-26T03:25:16;1.58;;;1.13;;
65377;SDS011;51982;51.042;13.806;2023-02-26T03:30:44;1.67;;;1.35;;
65377;SDS011;51982;51.042;13.806;2023-02-26T03:34:12;3.08;;;1.25;;
65377;SDS011;51982;51.042;13.806;2023-02-26T03:36:28;2.55;;;1.40;;
65377;SDS011;51982;51.042;13.806;2023-02-26T03:39:02;3.35;;;1.42;;
65377;SDS011;51982;51.042;13.806;2023-02-26T03:41:38;2.47;;;1.10;;
65377;SDS011;51982;51.042;13.806;2023-02-26T03:44:20;1.95;;;1.38;;
65377;SDS011;51982;51.042;13.806;2023-02-26T03:46:51;2.25;;;1.10;;
65377;SDS011;51982;51.042;13.806;2023-02-26T03:49:25;1.30;;;1.05;;
65377;SDS011;51982;51.042;13.806;2023-02-26T03:51:57;1.17;;;1.08;;
65377;SDS011;51982;51.042;13.806;2023-02-26T03:54:26;3.85;;;1.00;;
65377;SDS011;51982;51.042;13.806;2023-02-26T03:56:56;1.90;;;1.50;;
65377;SDS011;51982;51.042;13.806;2023-02-26T03:59:22;2.65;;;1.48;;
65377;SDS011;51982;51.042;13.806;2023-02-26T04:02:01;3.13;;;1.55;;
65377;SDS011;51982;51.042;13.806;2023-02-26T04:04:44;1.15;;;0.93;;
65377;SDS011;51982;51.042;13.806;2023-02-26T04:07:14;2.13;;;1.27;;
65377;SDS011;51982;51.042;13.806;2023-02-26T04:09:41;2.97;;;1.60;;
65377;SDS011;51982;51.042;13.806;2023-02-26T04:12:07;2.05;;;1.38;;
65377;SDS011;51982;51.042;13.806;2023-02-26T04:14:33;3.03;;;1.33;;
65377;SDS011;51982;51.042;13.806;2023-02-26T04:16:58;2.67;;;1.50;;
65377;SDS011;51982;51.042;13.806;2023-02-26T04:19:23;2.15;;;1.15;;
65377;SDS011;51982;51.042;13.806;2023-02-26T04:21:48;1.50;;;1.23;;
65377;SDS011;51982;51.042;13.806;2023-02-26T04:24:14;2.03;;;1.15;;
65377;SDS011;51982;51.042;13.806;2023-02-26T04:26:39;1.83;;;1.30;;
65377;SDS011;51982;51.042;13.806;2023-02-26T04:29:04;1.85;;;1.27;;
65377;SDS011;51982;51.042;13.806;2023-02-26T04:31:30;1.67;;;0.70;;
65377;SDS011;51982;51.042;13.806;2023-02-26T04:33:55;2.28;;;1.10;;
65377;SDS011;51982;51.042;13.806;2023-02-26T04:36:20;2.45;;;1.10;;
65377;SDS011;51982;51.042;13.806;2023-02-26T04:38:46;3.60;;;1.10;;
65377;SDS011;51982;51.042;13.806;2023-02-26T04:41:11;2.13;;;1.10;;
65377;SDS011;51982;51.042;13.806;2023-02-26T04:43:36;1.77;;;1.20;;
65377;SDS011;51982;51.042;13.806;2023-02-26T04:46:02;0.73;;;0.50;;
65377;SDS011;51982;51.042;13.806;2023-02-26T04:48:27;0.68;;;0.45;;
65377;SDS011;51982;51.042;13.806;2023-02-26T04:50:53;0.95;;;0.70;;
65377;SDS011;51982;51.042;13.806;2023-02-26T04:53:18;3.10;;;0.90;;
65377;SDS011;51982;51.042;13.806;2023-02-26T04:55:43;1.63;;;1.08;;
65377;SDS011;51982;51.042;13.806;2023-02-26T04:58:11;2.08;;;1.00;;
65377;SDS011;51982;51.042;13.806;2023-02-26T05:00:37;3.92;;;1.02;;
65377;SDS011;51982;51.042;13.806;2023-02-26T05:03:02;2.35;;;0.90;;
65377;SDS011;51982;51.042;13.806;2023-02-26T05:05:27;1.20;;;0.90;;
65377;SDS011;51982;51.042;13.806;2023-02-26T05:07:52;1.73;;;0.70;;
65377;SDS011;51982;51.042;13.806;2023-02-26T05:10:20;4.72;;;2.67;;
65377;SDS011;51982;51.042;13.806;2023-02-26T05:12:45;1.23;;;0.73;;
65377;SDS011;51982;51.042;13.806;2023-02-26T05:15:11;1.67;;;0.80;;
65377;SDS011;51982;51.042;13.806;2023-02-26T05:17:36;0.70;;;0.70;;
65377;SDS011;51982;51.042;13.806;2023-02-26T05:20:01;1.77;;;1.13;;
65377;SDS011;51982;51.042;13.806;2023-02-26T05:22:27;2.22;;;1.20;;
65377;SDS011;51982;51.042;13.806;2023-02-26T05:24:53;2.85;;;1.20;;
65377;SDS011;51982;51.042;13.806;2023-02-26T05:27:18;1.98;;;1.05;;
65377;SDS011;51982;51.042;13.806;2023-02-26T05:29:43;1.63;;;1.13;;
65377;SDS011;51982;51.042;13.806;2023-02-26T05:32:09;1.70;;;1.10;;
65377;SDS011;51982;51.042;13.806;2023-02-26T05:34:35;5.07;;;1.40;;
65377;SDS011;51982;51.042;13.806;2023-02-26T05:37:01;2.95;;;1.20;;
65377;SDS011;51982;51.042;13.806;2023-02-26T05:39:26;3.15;;;1.17;;
65377;SDS011;51982;51.042;13.806;2023-02-26T05:41:51;1.52;;;0.77;;
65377;SDS011;51982;51.042;13.806;2023-02-26T05:44:19;1.63;;;1.05;;
65377;SDS011;51982;51.042;13.806;2023-02-26T05:46:44;7.07;;;1.75;;
65377;SDS011;51982;51.042;13.806;2023-02-26T05:49:09;1.52;;;0.90;;
65377;SDS011;51982;51.042;13.806;2023-02-26T05:51:34;4.80;;;1.10;;
65377;SDS011;51982;51.042;13.806;2023-02-26T05:54:00;1.38;;;0.75;;
65377;SDS011;51982;51.042;13.806;2023-02-26T05:56:25;1.33;;;0.95;;
65377;SDS011;51982;51.042;13.806;2023-02-26T05:58:50;1.42;;;1.00;;
65377;SDS011;51982;51.042;13.806;2023-02-26T06:01:15;4.90;;;1.20;;
65377;SDS011;51982;51.042;13.806;2023-02-26T06:03:41;3.63;;;1.73;;
65377;SDS011;51982;51.042;13.806;2023-02-26T06:06:09;2.08;;;1.15;;
65377;SDS011;51982;51.042;13.806;2023-02-26T06:08:35;1.05;;;0.70;;
65377;SDS011;51982;51.042;13.806;2023-02-26T06:11:00;2.85;;;1.10;;
65377;SDS011;51982;51.042;13.806;2023-02-26T06:13:25;3.40;;;1.10;;
65377;SDS011;51982;51.042;13.806;2023-02-26T06:15:51;2.17;;;1.10;;
65377;SDS011;51982;51.042;13.806;2023-02-26T06:18:17;1.50;;;1.00;;
65377;SDS011;51982;51.042;13.806;2023-02-26T06:20:42;3.42;;;1.13;;
65377;SDS011;51982;51.042;13.806;2023-02-26T06:23:07;1.42;;;1.00;;
65377;SDS011;51982;51.042;13.806;2023-02-26T06:25:33;2.13;;;0.93;;
65377;SDS011;51982;51.042;13.806;2023-02-26T06:27:58;2.67;;;1.30;;
65377;SDS011;51982;51.042;13.806;2023-02-26T06:30:23;0.70;;;0.70;;
65377;SDS011;51982;51.042;13.806;2023-02-26T06:32:48;2.00;;;1.05;;
65377;SDS011;51982;51.042;13.806;2023-02-26T06:35:14;2.70;;;1.33;;
65377;SDS011;51982;51.042;13.806;2023-02-26T06:37:39;2.67;;;1.20;;
65377;SDS011;51982;51.042;13.806;2023-02-26T06:40:04;1.15;;;0.75;;
65377;SDS011;51982;51.042;13.806;2023-02-26T06:42:30;3.17;;;1.00;;
65377;SDS011;51982;51.042;13.806;2023-02-26T06:44:55;4.82;;;1.13;;
65377;SDS011;51982;51.042;13.806;2023-02-26T06:47:21;1.88;;;1.20;;
65377;SDS011;51982;51.042;13.806;2023-02-26T06:49:47;1.50;;;1.15;;
65377;SDS011;51982;51.042;13.806;2023-02-26T06:52:13;3.33;;;1.30;;
65377;SDS011;51982;51.042;13.806;2023-02-26T06:54:38;2.38;;;1.17;;
65377;SDS011;51982;51.042;13.806;2023-02-26T06:57:03;3.10;;;1.20;;
65377;SDS011;51982;51.042;13.806;2023-02-26T06:59:29;4.00;;;0.90;;
65377;SDS011;51982;51.042;13.806;2023-02-26T07:01:54;2.92;;;1.40;;
65377;SDS011;51982;51.042;13.806;2023-02-26T07:04:19;1.55;;;1.00;;
65377;SDS011;51982;51.042;13.806;2023-02-26T07:06:44;2.00;;;1.00;;
65377;SDS011;51982;51.042;13.806;2023-02-26T07:09:10;0.80;;;0.80;;
65377;SDS011;51982;51.042;13.806;2023-02-26T07:11:35;3.33;;;1.63;;
65377;SDS011;51982;51.042;13.806;2023-02-26T07:14:00;3.20;;;1.60;;
65377;SDS011;51982;51.042;13.806;2023-02-26T07:16:26;0.95;;;0.77;;
65377;SDS011;51982;51.042;13.806;2023-02-26T07:18:51;5.95;;;1.27;;
65377;SDS011;51982;51.042;13.806;2023-02-26T07:21:16;2.17;;;1.00;;
65377;SDS011;51982;51.042;13.806;2023-02-26T07:23:41;5.38;;;1.30;;
65377;SDS011;51982;51.042;13.806;2023-02-26T07:26:07;4.28;;;1.63;;
65377;SDS011;51982;51.042;13.806;2023-02-26T07:28:32;4.88;;;1.30;;
65377;SDS011;51982;51.042;13.806;2023-02-26T07:30:58;2.35;;;1.38;;
65377;SDS011;51982;51.042;13.806;2023-02-26T07:33:23;3.58;;;1.45;;
65377;SDS011;51982;51.042;13.806;2023-02-26T07:35:50;3.47;;;1.42;;
65377;SDS011;51982;51.042;13.806;2023-02-26T07:38:15;3.33;;;1.42;;
65377;SDS011;51982;51.042;13.806;2023-02-26T07:40:40;2.42;;;1.15;;
65377;SDS011;51982;51.042;13.806;2023-02-26T07:43:06;3.45;;;1.35;;
65377;SDS011;51982;51.042;13.806;2023-02-26T07:45:31;2.30;;;1.33;;
65377;SDS011;51982;51.042;13.806;2023-02-26T07:47:56;2.42;;;1.23;;
65377;SDS011;51982;51.042;13.806;2023-02-26T07:50:22;5.20;;;1.40;;
65377;SDS011;51982;51.042;13.806;2023-02-26T07:52:49;3.65;;;1.60;;
65377;SDS011;51982;51.042;13.806;2023-02-26T07:55:16;2.05;;;1.02;;
65377;SDS011;51982;51.042;13.806;2023-02-26T07:57:41;2.08;;;1.20;;
65377;SDS011;51982;51.042;13.806;2023-02-26T08:00:07;1.67;;;1.08;;
65377;SDS011;51982;51.042;13.806;2023-02-26T08:02:33;2.72;;;1.58;;
65377;SDS011;51982;51.042;13.806;2023-02-26T08:04:58;4.32;;;2.17;;
65377;SDS011;51982;51.042;13.806;2023-02-26T08:07:23;4.03;;;1.90;;
65377;SDS011;51982;51.042;13.806;2023-02-26T08:09:48;4.68;;;2.40;;
65377;SDS011;51982;51.042;13.806;2023-02-26T08:12:13;2.15;;;1.58;;
65377;SDS011;51982;51.042;13.806;2023-02-26T08:14:39;5.10;;;1.90;;
65377;SDS011;51982;51.042;13.806;2023-02-26T08:17:05;5.65;;;1.40;;
65377;SDS011;51982;51.042;13.806;2023-02-26T08:19:31;3.10;;;1.33;;
65377;SDS011;51982;51.042;13.806;2023-02-26T08:21:56;1.80;;;0.93;;
65377;SDS011;51982;51.042;13.806;2023-02-26T08:24:22;4.78;;;1.70;;
65377;SDS011;51982;51.042;13.806;2023-02-26T08:26:47;1.35;;;0.98;;
65377;SDS011;51982;51.042;13.806;2023-02-26T08:29:13;5.00;;;1.50;;
65377;SDS011;51982;51.042;13.806;2023-02-26T08:31:38;3.35;;;1.10;;
65377;SDS011;51982;51.042;13.806;2023-02-26T08:34:03;1.33;;;0.73;;
65377;SDS011;51982;51.042;13.806;2023-02-26T08:36:29;2.85;;;1.00;;
65377;SDS011;51982;51.042;13.806;2023-02-26T08:38:55;2.55;;;0.70;;
65377;SDS011;51982;51.042;13.806;2023-02-26T08:41:21;2.40;;;1.13;;
65377;SDS011;51982;51.042;13.806;2023-02-26T08:43:46;4.82;;;1.27;;
65377;SDS011;51982;51.042;13.806;2023-02-26T08:46:12;2.40;;;1.25;;
65377;SDS011;51982;51.042;13.806;2023-02-26T08:48:37;1.88;;;1.20;;
65377;SDS011;51982;51.042;13.806;2023-02-26T08:51:02;4.55;;;1.25;;
65377;SDS011;51982;51.042;13.806;2023-02-26T08:53:28;1.25;;;0.73;;
65377;SDS011;51982;51.042;13.806;2023-02-26T08:55:53;3.47;;;1.20;;
65377;SDS011;51982;51.042;13.806;2023-02-26T08:58:19;3.30;;;0.88;;
65377;SDS011;51982;51.042;13.806;2023-02-26T09:00:44;1.83;;;1.08;;
65377;SDS011;51982;51.042;13.806;2023-02-26T09:03:11;2.92;;;1.10;;
65377;SDS011;51982;51.042;13.806;2023-02-26T09:05:36;1.98;;;1.10;;
65377;SDS011;51982;51.042;13.806;2023-02-26T09:08:01;2.42;;;1.20;;
65377;SDS011;51982;51.042;13.806;2023-02-26T09:10:27;6.28;;;1.40;;
65377;SDS011;51982;51.042;13.806;2023-02-26T09:12:52;2.58;;;0.90;;
65377;SDS011;51982;51.042;13.806;2023-02-26T09:15:18;2.03;;;1.10;;
65377;SDS011;51982;51.042;13.806;2023-02-26T09:17:43;2.58;;;1.35;;
65377;SDS011;51982;51.042;13.806;2023-02-26T09:20:11;2.25;;;1.23;;
65377;SDS011;51982;51.042;13.806;2023-02-26T09:22:36;2.33;;;1.05;;
65377;SDS011;51982;51.042;13.806;2023-02-26T09:25:02;1.70;;;1.13;;
65377;SDS011;51982;51.042;13.806;2023-02-26T09:27:28;1.58;;;1.02;;
65377;SDS011;51982;51.042;13.806;2023-02-26T09:29:53;2.00;;;1.20;;
65377;SDS011;51982;51.042;13.806;2023-02-26T09:32:18;1.27;;;0.63;;
65377;SDS011;51982;51.042;13.806;2023-02-26T09:34:44;2.20;;;1.38;;
65377;SDS011;51982;51.042;13.806;2023-02-26T09:37:09;6.80;;;1.60;;
65377;SDS011;51982;51.042;13.806;2023-02-26T09:39:34;3.72;;;0.90;;
65377;SDS011;51982;51.042;13.806;2023-02-26T09:42:10;4.72;;;1.50;;
65377;SDS011;51982;51.042;13.806;2023-02-26T09:44:57;2.83;;;1.25;;
65377;SDS011;51982;51.042;13.806;2023-02-26T09:47:28;2.40;;;0.95;;
65377;SDS011;51982;51.042;13.806;2023-02-26T09:50:04;3.70;;;1.13;;
65377;SDS011;51982;51.042;13.806;2023-02-26T09:55:38;2.90;;;0.82;;
65377;SDS011;51982;51.042;13.806;2023-02-26T10:01:16;3.13;;;0.90;;
65377;SDS011;51982;51.042;13.806;2023-02-26T10:03:49;0.98;;;0.65;;
65377;SDS011;51982;51.042;13.806;2023-02-26T10:06:27;2.08;;;0.77;;
65377;SDS011;51982;51.042;13.806;2023-02-26T10:09:06;1.90;;;1.10;;
65377;SDS011;51982;51.042;13.806;2023-02-26T10:14:22;2.72;;;0.88;;
65377;SDS011;51982;51.042;13.806;2023-02-26T10:16:55;2.25;;;0.80;;
65377;SDS011;51982;51.042;13.806;2023-02-26T10:19:29;0.88;;;0.57;;
65377;SDS011;51982;51.042;13.806;2023-02-26T10:22:04;2.15;;;0.82;;
65377;SDS011;51982;51.042;13.806;2023-02-26T10:24:43;2.47;;;0.83;;
65377;SDS011;51982;51.042;13.806;2023-02-26T10:27:36;1.08;;;0.63;;
65377;SDS011;51982;51.042;13.806;2023-02-26T10:30:20;2.20;;;0.80;;
65377;SDS011;51982;51.042;13.806;2023-02-26T10:33:09;4.60;;;0.75;;
65377;SDS011;51982;51.042;13.806;2023-02-26T10:35:52;2.53;;;0.60;;
65377;SDS011;51982;51.042;13.806;2023-02-26T10:38:24;3.53;;;0.80;;
65377;SDS011;51982;51.042;13.806;2023-02-26T10:40:58;5.78;;;0.93;;
65377;SDS011;51982;51.042;13.806;2023-02-26T10:51:33;4.53;;;0.80;;
65377;SDS011;51982;51.042;13.806;2023-02-26T10:54:10;1.90;;;0.68;;
65377;SDS011;51982;51.042;13.806;2023-02-26T10:56:40;2.65;;;0.75;;
65377;SDS011;51982;51.042;13.806;2023-02-26T10:59:05;3.38;;;0.85;;
65377;SDS011;51982;51.042;13.806;2023-02-26T11:01:31;1.08;;;0.73;;
65377;SDS011;51982;51.042;13.806;2023-02-26T11:04:15;1.45;;;0.63;;
65377;SDS011;51982;51.042;13.806;2023-02-26T11:09:24;0.57;;;0.45;;
65377;SDS011;51982;51.042;13.806;2023-02-26T11:11:51;2.17;;;1.05;;
65377;SDS011;51982;51.042;13.806;2023-02-26T11:14:25;1.92;;;0.77;;
65377;SDS011;51982;51.042;13.806;2023-02-26T11:16:52;1.63;;;0.98;;
65377;SDS011;51982;51.042;13.806;2023-02-26T11:19:22;2.30;;;0.93;;
65377;SDS011;51982;51.042;13.806;2023-02-26T11:21:52;1.50;;;0.70;;
65377;SDS011;51982;51.042;13.806;2023-02-26T11:24:21;1.83;;;0.60;;
65377;SDS011;51982;51.042;13.806;2023-02-26T11:26:53;1.10;;;0.77;;
65377;SDS011;51982;51.042;13.806;2023-02-26T11:29:21;1.95;;;0.63;;
65377;SDS011;51982;51.042;13.806;2023-02-26T11:31:50;3.13;;;0.90;;
65377;SDS011;51982;51.042;13.806;2023-02-26T11:34:17;1.05;;;0.77;;
65377;SDS011;51982;51.042;13.806;2023-02-26T11:36:48;1.27;;;0.80;;
65377;SDS011;51982;51.042;13.806;2023-02-26T11:39:15;1.45;;;0.80;;
65377;SDS011;51982;51.042;13.806;2023-02-26T11:41:43;3.20;;;0.93;;
65377;SDS011;51982;51.042;13.806;2023-02-26T11:44:44;1.75;;;0.60;;
65377;SDS011;51982;51.042;13.806;2023-02-26T11:47:06;2.00;;;0.60;;
65377;SDS011;51982;51.042;13.806;2023-02-26T11:49:36;2.58;;;0.90;;
65377;SDS011;51982;51.042;13.806;2023-02-26T11:54:36;2.15;;;0.80;;
65377;SDS011;51982;51.042;13.806;2023-02-26T11:57:05;2.05;;;0.90;;
65377;SDS011;51982;51.042;13.806;2023-02-26T11:59:32;0.80;;;0.50;;
65377;SDS011;51982;51.042;13.806;2023-02-26T12:02:09;1.48;;;0.77;;
65377;SDS011;51982;51.042;13.806;2023-02-26T12:04:37;2.25;;;0.82;;
65377;SDS011;51982;51.042;13.806;2023-02-26T12:07:07;1.85;;;0.75;;
65377;SDS011;51982;51.042;13.806;2023-02-26T12:09:36;2.08;;;0.70;;
65377;SDS011;51982;51.042;13.806;2023-02-26T12:26:32;2.40;;;0.70;;
65377;SDS011;51982;51.042;13.806;2023-02-26T12:32:17;3.83;;;0.93;;
65377;SDS011;51982;51.042;13.806;2023-02-26T12:35:05;2.58;;;0.90;;
65377;SDS011;51982;51.042;13.806;2023-02-26T12:45:59;2.10;;;0.70;;
65377;SDS011;51982;51.042;13.806;2023-02-26T12:51:48;3.03;;;0.70;;
65377;SDS011;51982;51.042;13.806;2023-02-26T12:57:15;3.65;;;0.90;;
65377;SDS011;51982;51.042;13.806;2023-02-26T13:03:01;2.58;;;0.70;;
65377;SDS011;51982;51.042;13.806;2023-02-26T13:05:43;1.63;;;0.95;;
65377;SDS011;51982;51.042;13.806;2023-02-26T13:08:24;2.60;;;0.98;;
65377;SDS011;51982;51.042;13.806;2023-02-26T13:19:19;2.13;;;1.00;;
65377;SDS011;51982;51.042;13.806;2023-02-26T13:21:52;2.08;;;0.98;;
65377;SDS011;51982;51.042;13.806;2023-02-26T13:24:24;4.20;;;1.20;;
65377;SDS011;51982;51.042;13.806;2023-02-26T13:26:54;3.00;;;0.90;;
65377;SDS011;51982;51.042;13.806;2023-02-26T13:29:22;4.20;;;1.20;;
65377;SDS011;51982;51.042;13.806;2023-02-26T13:34:33;4.13;;;1.30;;
65377;SDS011;51982;51.042;13.806;2023-02-26T13:37:03;3.33;;;1.25;;
65377;SDS011;51982;51.042;13.806;2023-02-26T13:42:26;2.38;;;0.90;;
65377;SDS011;51982;51.042;13.806;2023-02-26T13:48:12;1.98;;;0.80;;
65377;SDS011;51982;51.042;13.806;2023-02-26T13:54:01;1.00;;;0.45;;
65377;SDS011;51982;51.042;13.806;2023-02-26T13:59:03;0.73;;;0.40;;
65377;SDS011;51982;51.042;13.806;2023-02-26T14:01:49;2.80;;;0.80;;
65377;SDS011;51982;51.042;13.806;2023-02-26T14:06:44;0.67;;;0.57;;
65377;SDS011;51982;51.042;13.806;2023-02-26T14:16:54;0.95;;;0.60;;
65377;SDS011;51982;51.042;13.806;2023-02-26T14:27:33;1.50;;;0.80;;
65377;SDS011;51982;51.042;13.806;2023-02-26T14:30:12;2.22;;;0.90;;
65377;SDS011;51982;51.042;13.806;2023-02-26T14:32:46;2.05;;;0.98;;
65377;SDS011;51982;51.042;13.806;2023-02-26T14:35:23;1.20;;;0.77;;
65377;SDS011;51982;51.042;13.806;2023-02-26T14:40:25;1.45;;;0.90;;
65377;SDS011;51982;51.042;13.806;2023-02-26T14:42:59;2.42;;;1.17;;
65377;SDS011;51982;51.042;13.806;2023-02-26T14:45:34;1.88;;;0.75;;
65377;SDS011;51982;51.042;13.806;2023-02-26T14:48:05;2.05;;;0.75;;
65377;SDS011;51982;51.042;13.806;2023-02-26T14:51:04;4.60;;;1.02;;
65377;SDS011;51982;51.042;13.806;2023-02-26T14:56:10;0.65;;;0.55;;
65377;SDS011;51982;51.042;13.806;2023-02-26T14:58:57;1.75;;;0.85;;
65377;SDS011;51982;51.042;13.806;2023-02-26T15:04:31;1.60;;;0.93;;
65377;SDS011;51982;51.042;13.806;2023-02-26T15:07:19;2.90;;;0.70;;
65377;SDS011;51982;51.042;13.806;2023-02-26T15:15:22;10.43;;;0.80;;
65377;SDS011;51982;51.042;13.806;2023-02-26T15:21:03;3.65;;;0.60;;
65377;SDS011;51982;51.042;13.806;2023-02-26T15:23:50;0.75;;;0.55;;
65377;SDS011;51982;51.042;13.806;2023-02-26T15:28:47;2.35;;;0.60;;
65377;SDS011;51982;51.042;13.806;2023-02-26T15:31:14;25.75;;;6.07;;
65377;SDS011;51982;51.042;13.806;2023-02-26T15:33:42;29.83;;;8.93;;
65377;SDS011;51982;51.042;13.806;2023-02-26T15:36:14;18.58;;;5.70;;
65377;SDS011;51982;51.042;13.806;2023-02-26T15:38:44;10.15;;;3.88;;
65377;SDS011;51982;51.042;13.806;2023-02-26T15:41:12;6.78;;;2.35;;
65377;SDS011;51982;51.042;13.806;2023-02-26T15:43:38;5.95;;;2.28;;
65377;SDS011;51982;51.042;13.806;2023-02-26T15:46:08;4.15;;;2.08;;
65377;SDS011;51982;51.042;13.806;2023-02-26T15:48:35;8.35;;;1.95;;
65377;SDS011;51982;51.042;13.806;2023-02-26T15:51:03;2.88;;;1.60;;
65377;SDS011;51982;51.042;13.806;2023-02-26T15:53:49;3.67;;;1.92;;
65377;SDS011;51982;51.042;13.806;2023-02-26T15:56:17;4.40;;;1.90;;
65377;SDS011;51982;51.042;13.806;2023-02-26T15:58:47;4.03;;;1.88;;
65377;SDS011;51982;51.042;13.806;2023-02-26T16:01:16;6.30;;;2.10;;
65377;SDS011;51982;51.042;13.806;2023-02-26T16:03:49;5.28;;;2.00;;
65377;SDS011;51982;51.042;13.806;2023-02-26T16:06:17;3.75;;;2.17;;
65377;SDS011;51982;51.042;13.806;2023-02-26T16:08:44;5.88;;;2.38;;
65377;SDS011;51982;51.042;13.806;2023-02-26T16:11:09;6.50;;;2.08;;
65377;SDS011;51982;51.042;13.806;2023-02-26T16:13:39;6.38;;;1.70;;
65377;SDS011;51982;51.042;13.806;2023-02-26T16:16:08;6.80;;;2.63;;
65377;SDS011;51982;51.042;13.806;2023-02-26T16:18:39;3.80;;;1.50;;
65377;SDS011;51982;51.042;13.806;2023-02-26T16:21:06;2.55;;;1.60;;
65377;SDS011;51982;51.042;13.806;2023-02-26T16:26:54;5.63;;;2.10;;
65377;SDS011;51982;51.042;13.806;2023-02-26T16:29:11;4.18;;;1.85;;
65377;SDS011;51982;51.042;13.806;2023-02-26T16:31:39;4.25;;;1.70;;
65377;SDS011;51982;51.042;13.806;2023-02-26T16:36:48;3.97;;;1.65;;
65377;SDS011;51982;51.042;13.806;2023-02-26T16:39:23;3.45;;;1.55;;
65377;SDS011;51982;51.042;13.806;2023-02-26T16:42:02;2.55;;;1.45;;
65377;SDS011;51982;51.042;13.806;2023-02-26T16:44:42;2.63;;;1.52;;
65377;SDS011;51982;51.042;13.806;2023-02-26T16:47:28;2.75;;;1.55;;
65377;SDS011;51982;51.042;13.806;2023-02-26T16:49:55;4.50;;;1.80;;
65377;SDS011;51982;51.042;13.806;2023-02-26T16:52:21;2.80;;;1.80;;
65377;SDS011;51982;51.042;13.806;2023-02-26T16:54:55;2.80;;;1.70;;
65377;SDS011;51982;51.042;13.806;2023-02-26T16:57:28;5.18;;;1.95;;
65377;SDS011;51982;51.042;13.806;2023-02-26T16:59:58;2.40;;;1.50;;
65377;SDS011;51982;51.042;13.806;2023-02-26T17:02:28;9.02;;;1.80;;
65377;SDS011;51982;51.042;13.806;2023-02-26T17:04:58;6.20;;;2.67;;
65377;SDS011;51982;51.042;13.806;2023-02-26T17:07:33;5.57;;;2.45;;
65377;SDS011;51982;51.042;13.806;2023-02-26T17:10:07;6.63;;;2.55;;
65377;SDS011;51982;51.042;13.806;2023-02-26T17:12:50;4.15;;;1.98;;
65377;SDS011;51982;51.042;13.806;2023-02-26T17:15:26;6.68;;;2.53;;
65377;SDS011;51982;51.042;13.806;2023-02-26T17:17:53;5.68;;;3.63;;
65377;SDS011;51982;51.042;13.806;2023-02-26T17:20:23;6.03;;;2.67;;
65377;SDS011;51982;51.042;13.806;2023-02-26T17:22:51;5.32;;;2.92;;
65377;SDS011;51982;51.042;13.806;2023-02-26T17:25:18;4.97;;;2.83;;
65377;SDS011;51982;51.042;13.806;2023-02-26T17:27:45;16.80;;;6.88;;
65377;SDS011;51982;51.042;13.806;2023-02-26T17:30:14;16.42;;;8.00;;
65377;SDS011;51982;51.042;13.806;2023-02-26T17:32:42;8.15;;;4.07;;